createdAt,value
2022-09-28T00:02:41.132Z,97705.44
2022-09-28T00:05:43.007Z,97712.25
2022-09-28T00:08:45.038Z,97694.16
2022-09-28T00:11:47.492Z,97696.03
2022-09-28T00:14:49.250Z,97687.69
2022-09-28T00:17:51.135Z,97690.38
2022-09-28T00:21:09.312Z,97689.06
2022-09-28T00:24:17.341Z,97679.91
2022-09-28T00:27:19.120Z,97682.59
2022-09-28T00:30:20.943Z,97668.84
2022-09-28T00:33:22.741Z,97682.94
2022-09-28T00:36:27.124Z,97686.22
2022-09-28T00:39:31.700Z,97682.13
2022-09-28T00:42:33.675Z,97683.75
2022-09-28T00:45:35.439Z,97682.69
2022-09-28T00:48:40.626Z,97676.22
2022-09-28T00:51:45.579Z,97686.56
2022-09-28T00:54:49.288Z,97686.56
2022-09-28T00:57:56.052Z,97682.78
2022-09-28T01:00:59.325Z,97683.84
2022-09-28T01:04:02.985Z,97683.63
2022-09-28T01:07:05.362Z,97674.69
2022-09-28T01:10:08.084Z,97679.03
2022-09-28T01:13:11.218Z,97677.38
2022-09-28T01:16:38.890Z,97679.50
2022-09-28T01:19:59.926Z,97680.09
2022-09-28T01:23:21.225Z,97666.09
2022-09-28T01:26:41.897Z,97678.78
2022-09-28T01:29:55.510Z,97672.06
2022-09-28T01:33:05.855Z,97674.78
2022-09-28T01:36:26.516Z,97670.44
2022-09-28T01:39:42.674Z,97678.88
2022-09-28T01:42:50.535Z,97669.94
2022-09-28T01:46:08.014Z,97684.03
2022-09-28T01:49:16.373Z,97676.41
2022-09-28T01:52:24.773Z,97663.72
2022-09-28T01:55:37.395Z,97672.91
2022-09-28T01:58:54.545Z,97669.13
2022-09-28T02:02:12.637Z,97676.41
2022-09-28T02:05:20.164Z,97673.97
2022-09-28T02:08:29.055Z,97673.63
2022-09-28T02:11:32.463Z,97681.63
2022-09-28T02:14:38.012Z,97681.63
2022-09-28T02:17:40.160Z,97695.72
2022-09-28T02:20:47.586Z,97699.97
2022-09-28T02:24:03.845Z,97700.31
2022-09-28T02:27:18.904Z,97694.09
2022-09-28T02:30:21.315Z,97691.63
2022-09-28T02:33:34.990Z,97705.47
2022-09-28T02:36:37.182Z,97698.69
2022-09-28T02:39:39.183Z,97694.09
2022-09-28T02:42:52.652Z,97692.44
2022-09-28T02:46:22.331Z,97691.88
2022-09-28T02:50:06.421Z,97687.53
2022-09-28T02:53:41.058Z,97689.16
2022-09-28T02:56:55.115Z,97692.13
2022-09-28T03:00:10.285Z,97679.31
2022-09-28T03:03:32.005Z,97694.00
2022-09-28T03:06:46.025Z,97692.13
2022-09-28T03:10:20.188Z,97691.78
2022-09-28T03:13:22.851Z,97693.91
2022-09-28T03:16:24.706Z,97696.50
2022-09-28T03:19:31.560Z,97688.94
2022-09-28T03:22:34.727Z,97696.91
2022-09-28T03:25:36.514Z,97703.94
2022-09-28T03:28:38.494Z,97703.47
2022-09-28T03:31:41.796Z,97702.97
2022-09-28T03:34:43.802Z,97712.72
2022-09-28T03:37:46.625Z,97715.66
2022-09-28T03:40:55.870Z,97714.25
2022-09-28T03:43:58.122Z,97709.91
2022-09-28T03:47:02.189Z,97715.09
2022-09-28T03:50:04.163Z,97719.31
2022-09-28T03:53:06.001Z,97725.56
2022-09-28T03:56:11.942Z,97733.56
2022-09-28T03:59:14.585Z,97728.72
2022-09-28T04:02:16.427Z,97724.97
2022-09-28T04:05:18.232Z,97725.22
2022-09-28T04:08:20.093Z,97735.19
2022-09-28T04:11:22.010Z,97730.75
2022-09-28T04:14:24.684Z,97735.56
2022-09-28T04:17:26.555Z,97729.09
2022-09-28T04:20:28.902Z,97729.44
2022-09-28T04:23:36.926Z,97727.56
2022-09-28T04:26:38.934Z,97722.16
2022-09-28T04:29:43.986Z,97722.44
2022-09-28T04:32:49.162Z,97727.28
2022-09-28T04:35:51.725Z,97728.94
2022-09-28T04:38:53.789Z,97732.94
2022-09-28T04:41:58.417Z,97729.84
2022-09-28T04:45:02.292Z,97738.09
2022-09-28T04:48:07.532Z,97735.41
2022-09-28T04:51:31.090Z,97734.81
2022-09-28T04:54:33.129Z,97736.66
2022-09-28T04:57:35.575Z,97741.63
2022-09-28T05:00:37.629Z,97743.56
2022-09-28T05:04:02.474Z,97741.69
2022-09-28T05:07:42.375Z,97740.63
2022-09-28T05:10:44.367Z,97751.78
2022-09-28T05:13:46.400Z,97743.78
2022-09-28T05:16:51.055Z,97746.09
2022-09-28T05:20:09.770Z,97740.81
2022-09-28T05:23:12.899Z,97732.22
2022-09-28T05:26:16.794Z,97730.91
2022-09-28T05:29:18.723Z,97731.53
2022-09-28T05:32:51.058Z,97740.56
2022-09-28T05:36:01.067Z,97745.63
2022-09-28T05:39:04.324Z,97757.13
2022-09-28T05:42:08.010Z,97754.41
2022-09-28T05:45:10.471Z,97746.31
2022-09-28T05:48:14.646Z,97747.03
2022-09-28T05:51:16.850Z,97746.47
2022-09-28T05:54:18.840Z,97746.47
2022-09-28T05:57:21.811Z,97753.56
2022-09-28T06:00:23.740Z,97768.13
2022-09-28T06:03:29.336Z,97793.28
2022-09-28T06:06:31.328Z,97804.66
2022-09-28T06:09:33.102Z,97805.38
2022-09-28T06:12:48.010Z,97805.84
2022-09-28T06:15:51.179Z,97811.25
2022-09-28T06:18:53.038Z,97813.22
2022-09-28T06:22:10.735Z,97818.97
2022-09-28T06:25:24.223Z,97817.22
2022-09-28T06:28:27.182Z,97821.66
2022-09-28T06:31:31.160Z,97810.75
2022-09-28T06:34:34.952Z,97805.94
2022-09-28T06:37:36.725Z,97816.16
2022-09-28T06:40:39.496Z,97810.19
2022-09-28T06:43:41.702Z,97814.16
2022-09-28T06:47:01.871Z,97812.28
2022-09-28T06:50:16.804Z,97810.53
2022-09-28T06:53:29.540Z,97818.84
2022-09-28T06:56:34.093Z,97822.97
2022-09-28T06:59:35.828Z,97817.94
2022-09-28T07:02:37.808Z,97813.94
2022-09-28T07:05:48.455Z,97818.16
2022-09-28T07:09:28.047Z,97823.09
2022-09-28T07:12:55.352Z,97816.59
2022-09-28T07:16:08.739Z,97817.19
2022-09-28T07:19:11.170Z,97811.31
2022-09-28T07:22:18.818Z,97813.16
2022-09-28T07:25:23.784Z,97813.44
2022-09-28T07:28:45.779Z,97807.88
2022-09-28T07:32:15.054Z,97811.06
2022-09-28T07:35:31.902Z,97807.03
2022-09-28T07:38:35.506Z,97814.56
2022-09-28T07:41:39.722Z,97807.75
2022-09-28T07:44:43.163Z,97814.22
2022-09-28T07:47:45.902Z,97822.44
2022-09-28T07:51:09.899Z,97829.09
2022-09-28T07:54:17.887Z,97843.50
2022-09-28T07:57:48.191Z,97834.41
2022-09-28T08:01:01.089Z,97841.34
2022-09-28T08:04:03.576Z,97838.41
2022-09-28T08:07:10.579Z,97833.00
2022-09-28T08:10:12.738Z,97822.91
2022-09-28T08:13:34.770Z,97819.88
2022-09-28T08:16:56.088Z,97821.88
2022-09-28T08:20:28.507Z,97829.28
2022-09-28T08:23:30.510Z,97834.69
2022-09-28T08:26:32.295Z,97830.69
2022-09-28T08:29:34.343Z,97843.47
2022-09-28T08:33:12.470Z,97831.53
2022-09-28T08:36:18.173Z,97837.28
2022-09-28T08:39:28.961Z,97841.13
2022-09-28T08:43:03.114Z,97846.66
2022-09-28T08:46:27.265Z,97850.53
2022-09-28T08:49:50.357Z,97851.59
2022-09-28T08:53:29.271Z,97854.66
2022-09-28T08:57:10.497Z,97859.13
2022-09-28T09:00:31.327Z,97853.59
2022-09-28T09:03:39.451Z,97855.50
2022-09-28T09:07:22.692Z,97859.13
2022-09-28T09:10:52.323Z,97862.06
2022-09-28T09:14:29.073Z,97866.19
2022-09-28T09:17:44.262Z,97859.66
2022-09-28T09:20:58.545Z,97845.38
2022-09-28T09:24:50.609Z,97853.94
2022-09-28T09:28:09.362Z,97842.41
2022-09-28T09:31:32.367Z,97848.38
2022-09-28T09:34:57.977Z,97847.41
2022-09-28T09:38:40.958Z,97852.19
2022-09-28T09:42:16.568Z,97846.91
2022-09-28T09:46:10.330Z,97845.84
2022-09-28T09:49:35.085Z,97859.59
2022-09-28T09:52:58.182Z,97862.78
2022-09-28T09:56:08.926Z,97858.81
2022-09-28T09:59:27.792Z,97864.56
2022-09-28T10:02:51.045Z,97861.75
2022-09-28T10:06:19.313Z,97859.53
2022-09-28T10:09:30.964Z,97869.88
2022-09-28T10:12:51.179Z,97869.50
2022-09-28T10:15:53.383Z,97858.69
2022-09-28T10:19:01.519Z,97859.50
2022-09-28T10:22:25.666Z,97866.16
2022-09-28T10:25:30.087Z,97869.78
2022-09-28T10:28:48.164Z,97878.81
2022-09-28T10:31:52.896Z,97876.47
2022-09-28T10:35:47.879Z,97888.00
2022-09-28T10:38:50.164Z,97886.94
2022-09-28T10:42:04.379Z,97886.84
2022-09-28T10:45:23.778Z,97891.28
2022-09-28T10:48:31.639Z,97887.53
2022-09-28T10:51:56.648Z,97878.34
2022-09-28T10:55:25.827Z,97893.19
2022-09-28T10:58:40.586Z,97890.19
2022-09-28T11:01:46.024Z,97890.06
2022-09-28T11:04:56.358Z,97878.53
2022-09-28T11:08:02.837Z,97875.09
2022-09-28T11:11:16.230Z,97881.41
2022-09-28T11:14:31.923Z,97872.81
2022-09-28T11:17:41.561Z,97865.13
2022-09-28T11:20:45.880Z,97872.25
2022-09-28T11:24:05.956Z,97868.25
2022-09-28T11:27:23.795Z,97868.50
2022-09-28T11:30:42.336Z,97880.47
2022-09-28T11:34:14.925Z,97872.34
2022-09-28T11:37:41.377Z,97869.56
2022-09-28T11:40:58.967Z,97868.31
2022-09-28T11:44:20.974Z,97871.00
2022-09-28T11:47:53.616Z,97877.75
2022-09-28T11:51:18.548Z,97887.91
2022-09-28T11:54:34.159Z,97883.88
2022-09-28T11:57:42.535Z,97883.47
2022-09-28T12:00:51.298Z,97878.25
2022-09-28T12:04:00.519Z,97882.69
2022-09-28T12:07:16.237Z,97874.16
2022-09-28T12:10:39.409Z,97873.19
2022-09-28T12:13:48.179Z,97876.53
2022-09-28T12:17:25.853Z,97873.34
2022-09-28T12:20:32.685Z,97877.69
2022-09-28T12:23:37.209Z,97870.97
2022-09-28T12:26:38.911Z,97874.81
2022-09-28T12:29:51.604Z,97893.53
2022-09-28T12:33:03.956Z,97891.66
2022-09-28T12:36:30.494Z,97894.84
2022-09-28T12:39:56.492Z,97896.16
2022-09-28T12:43:05.548Z,97898.78
2022-09-28T12:46:19.364Z,97901.25
2022-09-28T12:50:36.620Z,97900.34
2022-09-28T12:53:49.137Z,97906.34
2022-09-28T12:57:05.135Z,97903.31
2022-09-28T13:00:35.077Z,97909.53
2022-09-28T13:04:07.578Z,97911.91
2022-09-28T13:07:40.297Z,97913.44
2022-09-28T13:10:51.356Z,97919.19
2022-09-28T13:14:15.189Z,97915.47
2022-09-28T13:17:38.795Z,97923.22
2022-09-28T13:21:04.145Z,97925.69
2022-09-28T13:24:31.207Z,97930.84
2022-09-28T13:27:39.769Z,97937.56
2022-09-28T13:30:44.005Z,97936.16
2022-09-28T13:33:47.930Z,97935.84
2022-09-28T13:37:16.888Z,97939.03
2022-09-28T13:40:19.199Z,97945.16
2022-09-28T13:43:32.404Z,97956.81
2022-09-28T13:46:48.975Z,97956.47
2022-09-28T13:50:12.157Z,97950.38
2022-09-28T13:53:29.037Z,97958.50
2022-09-28T13:56:59.610Z,97954.41
2022-09-28T14:00:17.599Z,97961.69
2022-09-28T14:03:34.186Z,97953.22
2022-09-28T14:06:42.811Z,97951.50
2022-09-28T14:10:07.986Z,97947.38
2022-09-28T14:13:10.446Z,97951.72
2022-09-28T14:16:18.879Z,97965.03
2022-09-28T14:19:33.433Z,97975.25
2022-09-28T14:22:55.695Z,97980.09
2022-09-28T14:26:43.839Z,97982.41
2022-09-28T14:29:49.770Z,97988.31
2022-09-28T14:32:56.949Z,97991.59
2022-09-28T14:36:02.303Z,97992.41
2022-09-28T14:39:22.613Z,97995.94
2022-09-28T14:42:25.883Z,97995.38
2022-09-28T14:45:37.905Z,97998.53
2022-09-28T14:49:00.259Z,98003.84
2022-09-28T14:52:03.557Z,97999.38
2022-09-28T14:55:13.860Z,97996.09
2022-09-28T14:58:22.502Z,97993.28
2022-09-28T15:01:25.988Z,98000.69
2022-09-28T15:04:30.815Z,97996.72
2022-09-28T15:07:52.511Z,97995.66
2022-09-28T15:10:54.313Z,97998.13
2022-09-28T15:14:07.654Z,98004.09
2022-09-28T15:17:11.282Z,98003.63
2022-09-28T15:20:17.579Z,97992.34
2022-09-28T15:23:37.742Z,98002.44
2022-09-28T15:26:39.578Z,98010.31
2022-09-28T15:30:01.873Z,98016.47
2022-09-28T15:33:23.355Z,98007.06
2022-09-28T15:36:31.200Z,98016.19
2022-09-28T15:39:34.809Z,98025.88
2022-09-28T15:42:37.056Z,98027.47
2022-09-28T15:45:44.133Z,98031.16
2022-09-28T15:48:45.951Z,98030.88
2022-09-28T15:51:52.814Z,98034.69
2022-09-28T15:54:55.494Z,98046.84
2022-09-28T15:58:17.690Z,98056.34
2022-09-28T16:01:31.923Z,98061.59
2022-09-28T16:04:48.190Z,98061.84
2022-09-28T16:07:56.126Z,98059.44
2022-09-28T16:11:17.397Z,98068.41
2022-09-28T16:14:26.321Z,98067.88
2022-09-28T16:17:34.991Z,98061.72
2022-09-28T16:20:41.369Z,98063.41
2022-09-28T16:23:52.900Z,98068.41
2022-09-28T16:27:25.030Z,98068.69
2022-09-28T16:30:34.583Z,98073.31
2022-09-28T16:33:54.132Z,98067.34
2022-09-28T16:36:58.198Z,98065.91
2022-09-28T16:40:04.398Z,98070.72
2022-09-28T16:43:17.312Z,98069.06
2022-09-28T16:46:36.324Z,98074.44
2022-09-28T16:49:40.675Z,98069.28
2022-09-28T16:53:04.449Z,98068.22
2022-09-28T16:56:07.096Z,98074.06
2022-09-28T16:59:13.676Z,98078.59
2022-09-28T17:02:45.663Z,98085.66
2022-09-28T17:05:48.033Z,98090.81
2022-09-28T17:08:51.761Z,98095.38
2022-09-28T17:11:57.858Z,98088.72
2022-09-28T17:15:00.368Z,98096.19
2022-09-28T17:18:03.672Z,98097.84
2022-09-28T17:21:16.111Z,98100.53
2022-09-28T17:24:19.192Z,98104.72
2022-09-28T17:27:24.647Z,98117.56
2022-09-28T17:30:26.597Z,98120.69
2022-09-28T17:33:29.154Z,98121.72
2022-09-28T17:36:31.625Z,98123.16
2022-09-28T17:39:34.971Z,98127.50
2022-09-28T17:42:37.569Z,98123.56
2022-09-28T17:49:03.526Z,98130.59
2022-09-28T17:52:14.158Z,98132.03
2022-09-28T17:55:32.001Z,98141.75
2022-09-28T17:58:34.696Z,98136.38
2022-09-28T18:01:39.500Z,98135.94
2022-09-28T18:04:51.739Z,98131.38
2022-09-28T18:07:58.929Z,98123.31
2022-09-28T18:11:01.766Z,98123.31
2022-09-28T18:14:07.822Z,98126.81
2022-09-28T18:17:12.955Z,98121.66
2022-09-28T18:20:16.993Z,98115.88
2022-09-28T18:23:20.770Z,98115.25
2022-09-28T18:26:28.035Z,98110.09
2022-09-28T18:29:33.676Z,98112.78
2022-09-28T18:32:39.312Z,98117.56
2022-09-28T18:35:54.483Z,98116.34
2022-09-28T18:39:02.378Z,98119.69
2022-09-28T18:42:07.112Z,98119.06
2022-09-28T18:45:11.343Z,98119.72
2022-09-28T18:48:13.666Z,98117.69
2022-09-28T18:51:15.870Z,98118.53
2022-09-28T18:54:20.905Z,98127.25
2022-09-28T18:57:29.021Z,98127.91
2022-09-28T19:00:32.577Z,98126.28
2022-09-28T19:03:35.770Z,98127.09
2022-09-28T19:06:44.745Z,98126.06
2022-09-28T19:09:47.221Z,98135.22
2022-09-28T19:12:52.420Z,98141.66
2022-09-28T19:15:55.656Z,98143.53
2022-09-28T19:18:59.575Z,98140.25
2022-09-28T19:22:02.255Z,98141.06
2022-09-28T19:25:04.402Z,98143.56
2022-09-28T19:28:07.583Z,98143.56
2022-09-28T19:31:17.883Z,98147.72
2022-09-28T19:34:24.421Z,98150.63
2022-09-28T19:37:26.326Z,98147.94
2022-09-28T19:40:28.073Z,98157.88
2022-09-28T19:43:31.218Z,98168.41
2022-09-28T19:46:35.985Z,98169.84
2022-09-28T19:49:40.049Z,98181.22
2022-09-28T19:52:42.391Z,98184.72
2022-09-28T19:55:50.880Z,98185.53
2022-09-28T19:58:52.650Z,98187.81
2022-09-28T20:01:56.390Z,98192.97
2022-09-28T20:04:58.262Z,98188.00
2022-09-28T20:08:00.071Z,98185.09
2022-09-28T20:11:03.137Z,98189.84
2022-09-28T20:14:09.723Z,98195.00
2022-09-28T20:17:19.306Z,98200.78
2022-09-28T20:20:21.232Z,98211.69
2022-09-28T20:23:23.272Z,98192.06
2022-09-28T20:26:26.903Z,98196.41
2022-09-28T20:29:31.642Z,98205.13
2022-09-28T20:32:35.288Z,98205.91
2022-09-28T20:35:39.566Z,98202.78
2022-09-28T20:38:42.074Z,98211.66
2022-09-28T20:41:46.057Z,98212.91
2022-09-28T20:44:47.903Z,98210.63
2022-09-28T20:47:49.842Z,98215.34
2022-09-28T20:51:03.225Z,98224.84
2022-09-28T20:54:05.278Z,98229.16
2022-09-28T20:57:18.792Z,98226.44
2022-09-28T21:00:22.819Z,98226.66
2022-09-28T21:03:25.131Z,98220.03
2022-09-28T21:06:33.300Z,98233.44
2022-09-28T21:09:35.431Z,98242.72
2022-09-28T21:12:40.819Z,98231.75
2022-09-28T21:15:42.743Z,98236.09
2022-09-28T21:18:44.904Z,98234.22
2022-09-28T21:21:47.192Z,98234.63
2022-09-28T21:24:49.040Z,98237.50
2022-09-28T21:27:52.188Z,98227.19
2022-09-28T21:30:54.031Z,98210.66
2022-09-28T21:33:59.418Z,98219.09
2022-09-28T21:37:01.200Z,98219.50
2022-09-28T21:40:06.349Z,98231.00
2022-09-28T21:43:08.079Z,98238.38
2022-09-28T21:46:12.700Z,98237.56
2022-09-28T21:49:14.518Z,98242.28
2022-09-28T21:52:16.682Z,98241.47
2022-09-28T21:55:25.287Z,98246.19
2022-09-28T21:58:29.699Z,98242.88
2022-09-28T22:01:31.909Z,98257.50
2022-09-28T22:04:33.790Z,98261.59
2022-09-28T22:07:35.812Z,98269.41
2022-09-28T22:10:37.813Z,98259.28
2022-09-28T22:13:42.004Z,98269.53
2022-09-28T22:16:43.841Z,98265.22
2022-09-28T22:19:45.629Z,98269.94
2022-09-28T22:22:50.878Z,98277.34
2022-09-28T22:26:01.461Z,98280.34
2022-09-28T22:29:08.708Z,98290.25
2022-09-28T22:32:10.625Z,98293.94
2022-09-28T22:35:12.389Z,98298.28
2022-09-28T22:38:14.210Z,98307.22
2022-09-28T22:41:18.757Z,98297.38
2022-09-28T22:44:20.637Z,98300.31
2022-09-28T22:47:22.448Z,98296.59
2022-09-28T22:50:24.263Z,98296.59
2022-09-28T22:53:26.589Z,98298.00
2022-09-28T22:56:29.120Z,98306.00
2022-09-28T22:59:30.869Z,98319.41
2022-09-28T23:02:32.687Z,98310.72
2022-09-28T23:05:34.745Z,98312.97
2022-09-28T23:08:36.639Z,98312.31
2022-09-28T23:11:38.608Z,98307.34
2022-09-28T23:14:40.564Z,98304.84
2022-09-28T23:17:45.031Z,98304.22
2022-09-28T23:20:56.313Z,98315.78
2022-09-28T23:24:01.720Z,98312.25
2022-09-28T23:27:03.762Z,98311.44
2022-09-28T23:30:07.691Z,98310.59
2022-09-28T23:33:17.319Z,98320.69
2022-09-28T23:36:19.108Z,98320.03
2022-09-28T23:39:21.034Z,98320.44
2022-09-28T23:42:22.915Z,98327.63
2022-09-28T23:45:25.215Z,98329.69
2022-09-28T23:48:27.224Z,98331.72
2022-09-28T23:51:29.135Z,98335.63
2022-09-28T23:54:31.362Z,98338.06
2022-09-28T23:57:33.190Z,98340.28
